Time;durP1;ratioP1;P1;durP2;ratioP2;P2;SDS_P1;SDS_P2;PMS_P1;PMS_P2;Temp;Humidity;BMP_temperature;BMP_pressure;BME280_temperature;BME280_humidity;BME280_pressure;Samples;Min_cycle;Max_cycle;Signal;HPM_P1;HPM_P2
2023/03/07 00:00:02;;;;;;;57.30;32.20;;;;;;;-0.67;81.47;99206.86;108643;1275;37479;-75
2023/03/07 00:02:37;;;;;;;54.10;31.00;;;;;;;-0.70;81.78;99209.11;108714;1275;37111;-75
2023/03/07 00:05:13;;;;;;;48.90;30.10;;;;;;;-0.68;82.02;99207.73;108722;1275;36115;-75
2023/03/07 00:07:54;;;;;;;51.40;30.50;;;;;;;-0.66;82.11;99205.30;108721;1275;35988;-73
2023/03/07 00:10:31;;;;;;;53.90;30.90;;;;;;;-0.63;82.15;99208.17;108046;1252;915751;-76
2023/03/07 00:13:05;;;;;;;54.10;31.90;;;;;;;-0.62;82.06;99210.39;108697;1275;36040;-75
2023/03/07 00:15:41;;;;;;;53.40;30.50;;;;;;;-0.64;81.99;99207.67;108612;1273;37465;-75
2023/03/07 00:18:15;;;;;;;48.70;28.60;;;;;;;-0.66;81.90;99210.44;108713;1275;37131;-74
2023/03/07 00:20:58;;;;;;;46.70;27.10;;;;;;;-0.69;81.93;99209.96;108713;1275;38265;-76
2023/03/07 00:23:32;;;;;;;45.50;26.30;;;;;;;-0.71;81.81;99209.98;108737;1253;36959;-76
2023/03/07 00:26:07;;;;;;;43.10;26.80;;;;;;;-0.69;82.08;99211.33;108719;1275;38274;-75
2023/03/07 00:28:41;;;;;;;42.00;26.10;;;;;;;-0.68;82.09;99206.87;108619;1266;37013;-75
2023/03/07 00:31:16;;;;;;;45.20;24.40;;;;;;;-0.66;81.85;99208.89;108599;1264;175385;-75
2023/03/07 00:33:50;;;;;;;35.80;22.70;;;;;;;-0.69;81.77;99209.10;108697;1275;36168;-75
2023/03/07 00:36:25;;;;;;;37.50;22.30;;;;;;;-0.72;81.65;99207.25;108714;1275;37435;-75
2023/03/07 00:38:59;;;;;;;32.30;20.00;;;;;;;-0.76;81.12;99205.77;108708;1271;37385;-74
2023/03/07 00:41:33;;;;;;;32.40;18.30;;;;;;;-0.82;81.01;99201.02;108597;1263;37990;-76
2023/03/07 00:44:08;;;;;;;30.70;18.20;;;;;;;-0.88;80.65;99201.95;108734;1256;37000;-75
2023/03/07 00:46:43;;;;;;;29.60;19.10;;;;;;;-0.94;80.69;99203.73;108712;1253;37093;-74
2023/03/07 00:49:19;;;;;;;33.70;21.10;;;;;;;-0.96;80.69;99202.55;108714;1275;36867;-76
2023/03/07 00:51:53;;;;;;;36.00;22.10;;;;;;;-1.00;80.65;99203.79;108756;1256;38614;-74
2023/03/07 00:54:27;;;;;;;37.60;21.90;;;;;;;-1.04;80.74;99202.27;108713;1275;38735;-75
2023/03/07 00:57:01;;;;;;;38.10;21.90;;;;;;;-1.07;80.96;99200.60;108723;1254;37217;-73
2023/03/07 00:59:35;;;;;;;36.90;22.60;;;;;;;-1.10;80.73;99201.81;108713;1275;37285;-73
2023/03/07 01:02:10;;;;;;;36.20;21.30;;;;;;;-1.13;80.91;99202.71;108738;1264;37123;-76
2023/03/07 01:04:44;;;;;;;34.10;20.80;;;;;;;-1.14;81.03;99201.17;108625;1275;36232;-74
2023/03/07 01:07:18;;;;;;;34.30;20.40;;;;;;;-1.15;80.80;99197.08;108721;1275;37210;-75
2023/03/07 01:09:55;;;;;;;33.30;21.50;;;;;;;-1.18;80.54;99197.29;108663;1258;37177;-76
2023/03/07 01:12:30;;;;;;;34.80;21.00;;;;;;;-1.27;80.31;99199.08;108723;1275;37006;-76
2023/03/07 01:15:05;;;;;;;40.00;22.00;;;;;;;-1.38;80.11;99199.52;108571;1259;37128;-77
2023/03/07 01:17:39;;;;;;;33.90;21.20;;;;;;;-1.50;79.92;99200.64;108736;1272;36779;-75
2023/03/07 01:20:15;;;;;;;40.60;21.40;;;;;;;-1.65;79.99;99201.95;108587;1259;37238;-76
2023/03/07 01:22:49;;;;;;;33.40;19.00;;;;;;;-1.79;80.02;99196.41;108825;1275;37098;-76
2023/03/07 01:25:23;;;;;;;31.80;18.50;;;;;;;-1.91;80.03;99196.50;108815;1269;36943;-75
2023/03/07 01:27:57;;;;;;;27.40;17.40;;;;;;;-2.02;80.08;99194.69;108750;1256;36502;-76
2023/03/07 01:30:31;;;;;;;29.70;17.30;;;;;;;-2.11;80.07;99188.42;108803;1275;36965;-76
2023/03/07 01:33:06;;;;;;;28.40;17.80;;;;;;;-2.18;80.15;99191.70;108801;1253;38297;-75
2023/03/07 01:35:41;;;;;;;30.10;17.70;;;;;;;-2.25;80.25;99195.84;108704;1254;36739;-73
2023/03/07 01:38:15;;;;;;;33.40;19.00;;;;;;;-2.33;80.17;99195.88;108740;1254;37051;-75
2023/03/07 01:40:50;;;;;;;31.50;18.90;;;;;;;-2.45;80.30;99191.48;108666;1259;37386;-75
2023/03/07 01:43:29;;;;;;;33.90;18.70;;;;;;;-2.58;80.19;99190.54;108735;1275;37222;-76
2023/03/07 01:46:47;;;;;;;31.70;18.40;;;;;;;-2.70;80.40;99188.19;108802;1256;36999;-76
2023/03/07 01:49:27;;;;;;;29.40;17.90;;;;;;;-2.84;80.56;99183.28;108862;1257;36962;-74
2023/03/07 01:52:05;;;;;;;29.00;17.40;;;;;;;-2.89;80.67;99184.48;108768;1256;37178;-76
2023/03/07 01:54:47;;;;;;;27.40;17.00;;;;;;;-2.93;80.94;99184.50;108776;1256;38107;-73
2023/03/07 01:57:23;;;;;;;31.90;18.50;;;;;;;-2.97;81.00;99185.20;108802;1263;36059;-73
2023/03/07 02:00:07;;;;;;;32.50;19.00;;;;;;;-3.05;81.19;99182.31;108776;1257;37134;-75
2023/03/07 02:02:43;;;;;;;31.50;18.50;;;;;;;-3.12;81.23;99183.35;108830;1254;36989;-74
2023/03/07 02:05:20;;;;;;;30.90;18.70;;;;;;;-3.20;81.20;99181.66;108810;1256;37233;-76
2023/03/07 02:07:56;;;;;;;32.20;17.40;;;;;;;-3.26;81.29;99185.92;108790;1253;37527;-76
2023/03/07 02:10:31;;;;;;;28.80;17.10;;;;;;;-3.31;81.34;99190.55;108812;1275;37200;-77
2023/03/07 02:13:05;;;;;;;29.00;17.50;;;;;;;-3.35;81.28;99186.63;108803;1275;37537;-77
2023/03/07 02:15:41;;;;;;;28.50;18.10;;;;;;;-3.37;81.41;99187.14;108702;1263;38027;-77
2023/03/07 02:18:18;;;;;;;30.40;18.30;;;;;;;-3.41;81.41;99193.80;108656;1257;38644;-78
2023/03/07 02:20:59;;;;;;;33.80;17.80;;;;;;;-3.48;81.37;99190.21;108089;1253;922121;-75
2023/03/07 02:23:38;;;;;;;34.30;18.90;;;;;;;-3.57;81.24;99194.65;108686;1253;38805;-76
2023/03/07 02:26:13;;;;;;;;;;;;;;;-3.65;81.34;99193.46;108796;1255;37902;-74
2023/03/07 02:28:48;;;;;;;27.90;16.50;;;;;;;-3.77;81.48;99194.65;108800;1275;36609;-76
2023/03/07 02:31:22;;;;;;;30.40;17.30;;;;;;;-3.79;81.71;99194.64;108775;1270;37095;-75
2023/03/07 02:33:56;;;;;;;30.70;18.20;;;;;;;-3.82;81.68;99193.44;108688;1259;37651;-76
2023/03/07 02:36:32;;;;;;;32.50;18.70;;;;;;;-3.84;81.94;99193.27;108559;1275;175646;-77
2023/03/07 02:39:07;;;;;;;34.80;20.10;;;;;;;-3.86;82.03;99195.83;108776;1256;36569;-77
2023/03/07 02:41:42;;;;;;;32.60;18.40;;;;;;;-3.90;82.11;99195.31;108762;1264;37078;-77
2023/03/07 02:44:16;;;;;;;34.60;19.10;;;;;;;-3.94;81.94;99192.75;108786;1275;37142;-76
2023/03/07 02:46:50;;;;;;;33.60;19.80;;;;;;;-3.98;82.18;99192.91;108781;1267;36925;-76
2023/03/07 02:49:25;;;;;;;34.00;19.80;;;;;;;-3.99;82.17;99187.80;108727;1274;37108;-76
2023/03/07 02:52:01;;;;;;;37.20;21.30;;;;;;;-4.00;82.30;99188.31;108781;1275;37078;-75
2023/03/07 02:54:35;;;;;;;40.30;23.40;;;;;;;-4.00;82.44;99192.92;108764;1275;37191;-77
2023/03/07 02:57:10;;;;;;;41.30;23.40;;;;;;;-4.03;82.52;99190.18;108770;1264;37036;-76
2023/03/07 02:59:44;;;;;;;44.90;24.90;;;;;;;-4.08;82.47;99192.55;108759;1255;36123;-75
2023/03/07 03:06:37;;;;;;;56.40;31.00;;;;;;;-4.13;83.27;99190.01;108495;1276;37433;-76
2023/03/07 03:09:11;;;;;;;55.60;30.70;;;;;;;-4.06;83.72;99187.30;108226;1261;36689;-77
2023/03/07 03:11:45;;;;;;;63.30;33.00;;;;;;;-3.96;83.98;99183.89;108378;1279;37328;-77
2023/03/07 03:14:20;;;;;;;68.40;35.50;;;;;;;-3.87;84.38;99186.63;108351;1264;36285;-79
2023/03/07 03:16:55;;;;;;;69.90;37.20;;;;;;;-3.81;84.30;99182.54;108398;1267;36994;-77
2023/03/07 03:19:30;;;;;;;73.80;36.60;;;;;;;-3.76;84.39;99180.84;108382;1279;36214;-76
2023/03/07 03:22:05;;;;;;;71.80;37.40;;;;;;;-3.70;84.49;99181.86;108254;1278;38561;-74
2023/03/07 03:24:41;;;;;;;71.40;38.60;;;;;;;-3.60;84.71;99180.69;108393;1267;38254;-77
2023/03/07 03:27:16;;;;;;;67.90;35.50;;;;;;;-3.50;84.77;99180.00;108415;1279;37067;-75
2023/03/07 03:29:50;;;;;;;70.70;36.50;;;;;;;-3.42;84.90;99180.67;108406;1256;37241;-76
2023/03/07 03:32:24;;;;;;;72.60;38.30;;;;;;;-3.34;84.83;99178.11;108259;1261;37034;-77
2023/03/07 03:34:58;;;;;;;74.60;38.20;;;;;;;-3.26;84.98;99176.89;108377;1261;36734;-77
2023/03/07 03:37:33;;;;;;;74.60;37.00;;;;;;;-3.21;85.15;99175.85;108358;1262;37022;-78
2023/03/07 03:40:13;;;;;;;77.80;39.60;;;;;;;-3.19;84.76;99175.69;108346;1267;37003;-78
2023/03/07 03:42:49;;;;;;;71.00;36.70;;;;;;;-3.15;84.99;99173.64;108402;1278;37190;-77
2023/03/07 03:45:23;;;;;;;68.00;36.40;;;;;;;-3.08;84.80;99173.97;108262;1267;38114;-77
2023/03/07 03:47:58;;;;;;;74.70;38.70;;;;;;;-3.02;84.96;99175.31;108381;1258;37336;-77
2023/03/07 03:50:32;;;;;;;74.00;37.80;;;;;;;-2.97;84.74;99172.05;108388;1260;37034;-76
2023/03/07 03:53:06;;;;;;;68.80;35.70;;;;;;;-2.98;84.63;99171.55;108397;1260;36643;-76
2023/03/07 03:55:40;;;;;;;69.90;38.10;;;;;;;-2.96;84.67;99173.08;107559;1262;935179;-78
2023/03/07 03:58:15;;;;;;;66.20;33.70;;;;;;;-2.96;84.75;99174.11;108350;1275;36954;-78
2023/03/07 04:00:49;;;;;;;65.90;35.60;;;;;;;-2.98;84.44;99175.14;108105;1270;37837;-77
2023/03/07 04:03:23;;;;;;;60.70;32.90;;;;;;;-3.00;84.49;99175.15;108375;1278;37113;-78
2023/03/07 04:06:03;;;;;;;60.10;31.70;;;;;;;-2.99;84.31;99176.16;108355;1279;36195;-76
2023/03/07 04:08:38;;;;;;;58.20;31.90;;;;;;;-3.02;84.41;99175.14;108253;1269;37184;-78
2023/03/07 04:11:13;;;;;;;59.60;32.50;;;;;;;-3.00;84.44;99171.73;108383;1267;37049;-77
2023/03/07 04:13:47;;;;;;;60.60;33.20;;;;;;;-2.98;84.59;99173.94;108387;1279;37148;-77
2023/03/07 04:16:22;;;;;;;69.10;34.60;;;;;;;-2.97;84.55;99170.70;108385;1279;38266;-77
2023/03/07 04:18:56;;;;;;;61.40;31.60;;;;;;;-2.99;84.54;99169.34;108266;1279;173500;-76
2023/03/07 04:21:30;;;;;;;60.80;33.70;;;;;;;-3.04;84.46;99164.39;108422;1279;37080;-77
2023/03/07 04:24:05;;;;;;;59.10;31.60;;;;;;;-3.07;84.35;99166.80;108407;1278;38499;-75
2023/03/07 04:26:39;;;;;;;61.40;34.00;;;;;;;-3.06;84.70;99166.77;108216;1264;36272;-78
2023/03/07 04:29:14;;;;;;;62.00;34.30;;;;;;;-3.02;84.88;99162.34;108395;1276;36988;-78
2023/03/07 04:31:49;;;;;;;60.70;34.10;;;;;;;-2.96;84.93;99163.17;108386;1269;37055;-75
2023/03/07 04:34:23;;;;;;;62.30;33.00;;;;;;;-2.94;84.93;99163.18;108379;1267;37272;-75
2023/03/07 04:36:57;;;;;;;51.70;28.70;;;;;;;-2.95;84.77;99159.94;108398;1261;37346;-76
2023/03/07 04:39:31;;;;;;;51.50;30.00;;;;;;;-2.96;84.74;99156.88;108391;1279;37029;-77
2023/03/07 04:42:06;;;;;;;49.40;28.80;;;;;;;-2.92;84.80;99159.23;108413;1279;36382;-77
2023/03/07 04:44:40;;;;;;;52.60;29.80;;;;;;;-2.91;84.47;99153.61;108395;1279;36185;-77
2023/03/07 04:47:15;;;;;;;53.50;29.60;;;;;;;-2.92;84.57;99159.41;108395;1268;38938;-75
2023/03/07 04:49:49;;;;;;;58.80;30.40;;;;;;;-2.93;84.47;99162.15;108382;1261;37956;-76
2023/03/07 04:52:23;;;;;;;53.00;29.20;;;;;;;-2.99;84.28;99162.17;108379;1279;37149;-76
2023/03/07 04:54:57;;;;;;;54.00;29.00;;;;;;;-3.00;84.43;99159.27;108383;1256;36013;-75
2023/03/07 04:57:32;;;;;;;49.40;28.70;;;;;;;-3.01;84.48;99153.48;108428;1267;38435;-76
2023/03/07 05:00:12;;;;;;;49.00;28.30;;;;;;;-3.03;84.45;99155.02;108248;1279;36970;-76
2023/03/07 05:02:48;;;;;;;46.10;27.80;;;;;;;-3.03;84.40;99152.45;108228;1261;37772;-77
2023/03/07 05:05:22;;;;;;;50.70;28.40;;;;;;;-3.01;84.53;99153.12;108296;1260;175999;-77
2023/03/07 05:08:00;;;;;;;50.40;29.10;;;;;;;-3.00;84.63;99153.48;108288;1260;175514;-77
2023/03/07 05:10:34;;;;;;;56.10;28.60;;;;;;;-2.96;84.74;99148.52;108366;1279;37127;-77
2023/03/07 05:13:09;;;;;;;53.20;30.00;;;;;;;-2.96;84.57;99147.83;108139;1278;175491;-76
2023/03/07 05:15:44;;;;;;;55.60;30.00;;;;;;;-2.99;84.52;99150.21;108421;1261;37076;-76
2023/03/07 05:18:18;;;;;;;55.10;29.70;;;;;;;-3.01;84.56;99150.05;108046;1256;480082;-75
2023/03/07 05:20:53;;;;;;;52.80;29.00;;;;;;;-3.00;84.64;99151.77;108264;1262;36590;-77
2023/03/07 05:23:29;;;;;;;51.90;28.00;;;;;;;-2.98;84.74;99150.38;108412;1267;36981;-75
2023/03/07 05:26:05;;;;;;;49.90;29.00;;;;;;;-2.92;84.98;99155.32;108211;1265;35957;-76
2023/03/07 05:28:41;;;;;;;52.90;28.60;;;;;;;-2.89;84.82;99155.48;108472;1261;36352;-78
2023/03/07 05:31:15;;;;;;;56.90;30.70;;;;;;;-2.89;84.71;99156.51;108495;1277;36636;-76
2023/03/07 05:33:49;;;;;;;60.10;31.50;;;;;;;-2.90;84.76;99156.16;108347;1255;36706;-77
2023/03/07 05:36:27;;;;;;;58.90;30.20;;;;;;;-2.93;84.76;99156.52;108367;1279;37063;-76
2023/03/07 05:39:02;;;;;;;59.40;30.60;;;;;;;-2.93;84.85;99163.50;108371;1278;36599;-76
2023/03/07 05:41:36;;;;;;;59.30;30.90;;;;;;;-2.91;84.80;99162.66;108402;1278;38471;-76
2023/03/07 05:44:11;;;;;;;56.80;30.80;;;;;;;-2.89;84.73;99163.33;108389;1267;37008;-75
2023/03/07 05:46:48;;;;;;;63.10;32.50;;;;;;;-2.86;84.73;99162.80;108428;1279;37090;-76
2023/03/07 05:49:23;;;;;;;64.20;33.90;;;;;;;-2.85;84.57;99166.05;108386;1264;36980;-75
2023/03/07 05:51:58;;;;;;;72.70;35.30;;;;;;;-2.86;84.77;99167.59;108313;1270;38753;-74
2023/03/07 05:54:32;;;;;;;72.80;36.30;;;;;;;-2.88;85.01;99167.26;108412;1279;37599;-73
2023/03/07 05:57:10;;;;;;;76.00;36.90;;;;;;;-2.90;84.88;99171.52;108396;1256;37011;-75
2023/03/07 05:59:45;;;;;;;80.50;38.20;;;;;;;-2.86;85.08;99171.86;108239;1278;38335;-75
2023/03/07 06:02:20;;;;;;;80.70;39.40;;;;;;;-2.78;85.08;99172.00;108229;1270;36117;-78
2023/03/07 06:04:54;;;;;;;78.00;38.90;;;;;;;-2.75;85.12;99171.98;108371;1261;37109;-72
2023/03/07 06:07:30;;;;;;;75.70;38.50;;;;;;;-2.66;85.24;99177.92;108405;1274;37099;-72
2023/03/07 06:10:05;;;;;;;74.70;37.30;;;;;;;-2.60;85.42;99175.86;108428;1279;37043;-75
2023/03/07 06:12:40;;;;;;;67.50;35.80;;;;;;;-2.56;85.31;99173.11;108330;1268;37055;-75
2023/03/07 06:15:21;;;;;;;63.10;31.60;;;;;;;-2.53;85.08;99169.67;108365;1279;37316;-76
2023/03/07 06:18:01;;;;;;;61.30;32.70;;;;;;;-2.48;84.93;99167.26;108286;1267;36088;-77
2023/03/07 06:20:43;;;;;;;64.70;34.50;;;;;;;-2.39;85.13;99168.41;108146;1279;37454;-75
2023/03/07 06:23:20;;;;;;;68.10;35.20;;;;;;;-2.32;85.00;99165.98;108137;1279;37210;-74
2023/03/07 06:25:57;;;;;;;63.00;34.90;;;;;;;-2.26;84.93;99169.55;108160;1259;36957;-76
2023/03/07 06:28:33;;;;;;;68.80;36.30;;;;;;;-2.26;84.62;99170.73;108216;1279;37019;-76
2023/03/07 06:31:13;;;;;;;67.00;34.50;;;;;;;-2.26;84.47;99169.54;108135;1269;38966;-77
2023/03/07 06:33:48;;;;;;;53.80;29.70;;;;;;;-2.27;84.33;99172.45;108342;1279;37448;-75
2023/03/07 06:36:28;;;;;;;57.50;31.60;;;;;;;-2.26;84.38;99174.48;108098;1259;175461;-76
2023/03/07 06:39:02;;;;;;;62.70;32.40;;;;;;;-2.22;84.50;99171.05;108407;1279;36445;-76
2023/03/07 06:41:38;;;;;;;64.20;33.50;;;;;;;-2.18;84.33;99167.61;108387;1256;36993;-74
2023/03/07 06:44:14;;;;;;;59.50;32.00;;;;;;;-2.16;84.65;99166.75;108216;1271;36797;-76
2023/03/07 06:46:49;;;;;;;62.50;33.80;;;;;;;-2.08;84.78;99165.33;108410;1262;36652;-76
2023/03/07 06:49:23;;;;;;;66.20;34.50;;;;;;;-2.01;84.76;99157.77;108170;1275;37324;-75
2023/03/07 06:51:58;;;;;;;69.30;35.50;;;;;;;-1.94;84.48;99154.64;108216;1270;37368;-76
2023/03/07 06:54:33;;;;;;;62.60;33.00;;;;;;;-1.85;84.67;99151.84;108364;1261;37490;-76
2023/03/07 06:57:11;;;;;;;59.90;32.30;;;;;;;-1.76;84.46;99149.20;108391;1256;37122;-76
2023/03/07 06:59:46;;;;;;;58.00;31.10;;;;;;;-1.67;84.31;99150.51;108244;1267;36283;-77
2023/03/07 07:02:22;;;;;;;62.80;33.60;;;;;;;-1.63;83.76;99148.92;108144;1260;37088;-75
2023/03/07 07:04:57;;;;;;;62.20;33.10;;;;;;;-1.56;83.87;99145.29;108362;1260;37047;-78
2023/03/07 07:07:31;;;;;;;62.50;32.50;;;;;;;-1.51;83.32;99142.85;108199;1279;37956;-77
2023/03/07 07:10:06;;;;;;;65.80;32.50;;;;;;;-1.46;83.24;99142.45;108374;1262;37105;-75
2023/03/07 07:12:43;;;;;;;68.60;33.40;;;;;;;-1.37;83.42;99137.41;108353;1279;38097;-73
2023/03/07 07:15:19;;;;;;;66.90;33.50;;;;;;;-1.32;83.15;99133.08;108377;1279;36039;-75
2023/03/07 07:17:54;;;;;;;63.30;33.00;;;;;;;-1.30;82.80;99133.23;108355;1267;36701;-76
2023/03/07 07:20:29;;;;;;;58.10;31.90;;;;;;;-1.15;83.24;99129.48;108370;1279;37796;-76
2023/03/07 07:23:05;;;;;;;63.00;31.60;;;;;;;-1.00;83.25;99129.84;108341;1260;38566;-76
2023/03/07 07:25:44;;;;;;;55.40;31.70;;;;;;;-0.91;82.80;99128.36;108195;1269;38954;-76
2023/03/07 07:28:19;;;;;;;53.90;29.80;;;;;;;-0.84;82.43;99122.98;108406;1277;36912;-77
2023/03/07 07:30:54;;;;;;;53.20;29.00;;;;;;;-0.76;82.08;99118.42;108408;1256;37081;-76
2023/03/07 07:33:28;;;;;;;57.10;30.10;;;;;;;-0.66;81.95;99114.88;108267;1267;175337;-76
2023/03/07 07:36:03;;;;;;;55.50;30.20;;;;;;;-0.62;81.74;99114.13;108365;1279;37344;-76
2023/03/07 07:38:37;;;;;;;56.00;30.30;;;;;;;-0.57;81.18;99112.20;108183;1279;36990;-73
2023/03/07 07:41:12;;;;;;;55.30;30.60;;;;;;;-0.48;81.51;99113.95;108220;1263;37208;-76
2023/03/07 07:43:48;;;;;;;53.50;29.80;;;;;;;-0.39;80.95;99110.75;108361;1279;38025;-77
2023/03/07 07:46:23;;;;;;;55.30;31.80;;;;;;;-0.20;81.32;99108.07;108401;1262;37094;-75
2023/03/07 07:48:58;;;;;;;57.50;31.40;;;;;;;0.36;83.52;99101.18;108198;1279;37153;-77
2023/03/07 07:51:35;;;;;;;53.40;30.00;;;;;;;1.03;83.44;99101.30;108398;1279;38573;-75
2023/03/07 07:54:10;;;;;;;51.80;29.20;;;;;;;1.67;81.79;99095.50;108377;1271;36999;-74
2023/03/07 07:56:45;;;;;;;46.00;27.70;;;;;;;2.30;81.04;99090.56;108397;1279;37025;-77
2023/03/07 07:59:20;;;;;;;48.70;28.60;;;;;;;2.66;78.09;99091.37;108390;1271;36226;-75
2023/03/07 08:01:55;;;;;;;49.70;29.50;;;;;;;2.94;75.92;99093.17;108349;1256;37106;-75
2023/03/07 08:04:29;;;;;;;46.70;27.80;;;;;;;3.41;77.43;99083.56;108371;1279;37036;-75
2023/03/07 08:07:03;;;;;;;41.50;26.40;;;;;;;4.41;77.02;99074.73;108384;1265;38323;-75
2023/03/07 08:09:37;;;;;;;43.60;26.40;;;;;;;5.38;74.31;99065.19;108376;1267;37254;-74
2023/03/07 08:12:13;;;;;;;39.30;25.80;;;;;;;6.27;70.07;99066.40;108184;1272;37380;-73
2023/03/07 08:14:48;;;;;;;35.30;23.50;;;;;;;6.95;68.73;99065.06;108393;1256;36187;-73
2023/03/07 08:17:22;;;;;;;34.20;22.80;;;;;;;7.67;64.61;99062.13;108354;1279;37175;-74
2023/03/07 08:20:00;;;;;;;35.00;23.40;;;;;;;8.02;61.83;99055.07;108346;1268;36953;-74
2023/03/07 08:22:36;;;;;;;35.10;23.70;;;;;;;8.46;60.64;99055.00;108283;1279;174664;-76
2023/03/07 08:25:16;;;;;;;36.70;24.20;;;;;;;9.02;58.69;99044.32;108368;1279;37196;-74
2023/03/07 08:27:51;;;;;;;33.90;22.70;;;;;;;9.53;58.09;99035.45;108427;1262;37171;-75
2023/03/07 08:30:27;;;;;;;32.00;21.90;;;;;;;10.17;54.33;99033.08;108356;1279;37188;-75
2023/03/07 08:33:01;;;;;;;31.20;22.20;;;;;;;10.62;53.23;99032.05;108421;1279;36981;-76
2023/03/07 08:35:36;;;;;;;32.70;22.20;;;;;;;11.06;52.55;99024.83;108358;1269;37039;-74
2023/03/07 08:38:10;;;;;;;31.00;20.70;;;;;;;11.36;48.98;99017.73;108371;1279;37323;-77
2023/03/07 08:40:44;;;;;;;27.80;20.90;;;;;;;11.50;48.81;99013.88;108388;1260;36175;-74
2023/03/07 08:43:19;;;;;;;27.20;19.80;;;;;;;11.50;48.21;99013.01;108345;1279;37313;-75
2023/03/07 08:45:55;;;;;;;27.50;20.20;;;;;;;11.57;47.72;99010.09;108227;1269;36751;-75
2023/03/07 08:48:29;;;;;;;26.10;20.20;;;;;;;11.54;47.62;99008.86;108215;1269;37685;-77
2023/03/07 08:51:09;;;;;;;26.70;20.20;;;;;;;11.64;47.01;99006.66;108226;1279;174354;-78
2023/03/07 08:53:45;;;;;;;26.70;20.30;;;;;;;11.63;45.94;99010.23;108405;1268;38148;-78
2023/03/07 08:56:20;;;;;;;27.00;20.40;;;;;;;11.56;45.53;98999.13;108278;1261;187132;-73
2023/03/07 08:58:59;;;;;;;26.90;20.20;;;;;;;11.45;45.02;99001.64;108392;1267;36949;-76
2023/03/07 09:01:31;;;;;;;;;;;;;;;11.46;46.52;98996.52;108242;1268;174542;-76
2023/03/07 09:04:06;;;;;;;23.30;18.60;;;;;;;11.61;47.08;98992.39;108377;1279;37178;-73
2023/03/07 09:06:40;;;;;;;26.80;19.70;;;;;;;11.67;44.55;98995.13;108199;1261;37107;-72
2023/03/07 09:09:14;;;;;;;24.20;19.30;;;;;;;11.62;45.08;98995.66;108392;1279;37118;-73
2023/03/07 09:11:48;;;;;;;25.20;19.80;;;;;;;11.57;44.87;98994.01;108377;1265;37236;-75
2023/03/07 09:14:23;;;;;;;23.70;19.30;;;;;;;11.62;45.37;98989.34;108386;1262;38555;-73
2023/03/07 09:16:57;;;;;;;24.40;19.50;;;;;;;11.76;45.31;98985.84;108396;1273;36147;-76
2023/03/07 09:19:32;;;;;;;24.80;19.50;;;;;;;11.90;44.04;98983.54;108399;1280;36365;-75
2023/03/07 09:22:06;;;;;;;24.50;20.80;;;;;;;11.78;42.52;98981.48;108399;1270;36755;-75
2023/03/07 09:24:40;;;;;;;27.40;21.00;;;;;;;11.61;43.06;98985.91;108360;1279;36546;-75
2023/03/07 09:27:14;;;;;;;24.00;19.10;;;;;;;11.59;44.65;98982.56;108388;1256;37038;-75
2023/03/07 09:29:49;;;;;;;25.50;19.60;;;;;;;11.79;44.17;98976.67;108406;1268;36739;-75
2023/03/07 09:32:23;;;;;;;25.70;20.20;;;;;;;12.00;44.13;98967.16;108256;1262;37051;-77
2023/03/07 09:34:58;;;;;;;24.10;19.30;;;;;;;12.21;43.10;98968.02;108267;1264;37358;-76
2023/03/07 09:37:32;;;;;;;25.00;19.80;;;;;;;12.27;43.50;98961.88;108382;1279;37332;-75
2023/03/07 09:40:07;;;;;;;23.10;19.50;;;;;;;12.42;43.41;98959.63;108388;1279;37062;-74
2023/03/07 09:42:45;;;;;;;25.20;20.40;;;;;;;12.68;44.00;98959.05;108231;1280;37199;-74
2023/03/07 09:45:38;;;;;;;24.00;19.80;;;;;;;12.74;42.66;98962.16;108394;1268;37110;-75
2023/03/07 09:48:56;;;;;;;24.00;19.90;;;;;;;12.53;42.25;98965.15;108366;1261;37038;-72
2023/03/07 09:51:38;;;;;;;27.50;21.10;;;;;;;12.16;43.06;98958.89;108375;1278;37789;-74
2023/03/07 09:54:16;;;;;;;25.30;19.60;;;;;;;12.32;43.62;98951.20;108194;1272;37084;-74
2023/03/07 09:56:54;;;;;;;25.20;20.60;;;;;;;12.42;43.71;98942.48;108097;1270;174419;-74
2023/03/07 09:59:34;;;;;;;25.10;20.30;;;;;;;12.54;44.19;98936.04;108346;1261;36991;-72
2023/03/07 10:02:18;;;;;;;24.70;20.30;;;;;;;12.65;43.28;98931.92;108367;1261;37224;-74
2023/03/07 10:04:55;;;;;;;26.50;20.50;;;;;;;12.65;42.61;98932.81;107603;1271;900319;-74
2023/03/07 10:07:30;;;;;;;26.20;21.60;;;;;;;12.54;43.59;98931.33;108373;1279;37013;-73
2023/03/07 10:10:07;;;;;;;25.40;20.20;;;;;;;12.34;43.07;98922.34;108205;1262;39248;-74
2023/03/07 10:12:53;;;;;;;30.10;22.30;;;;;;;11.80;42.64;98928.24;108405;1264;37435;-73
2023/03/07 10:15:45;;;;;;;28.10;22.40;;;;;;;11.05;43.93;98925.91;108356;1279;37364;-73
2023/03/07 10:18:34;;;;;;;30.90;22.10;;;;;;;10.31;45.03;98924.55;108363;1268;37349;-74
2023/03/07 10:21:12;;;;;;;;;;;;;;;9.73;46.46;98922.70;108378;1279;37168;-74
2023/03/07 10:24:07;;;;;;;32.60;22.50;;;;;;;9.28;46.97;98920.59;108372;1278;36202;-74
2023/03/07 10:26:44;;;;;;;33.10;23.80;;;;;;;8.82;48.18;98918.55;108389;1256;37294;-72
2023/03/07 10:29:22;;;;;;;34.90;24.00;;;;;;;8.39;48.58;98923.60;108355;1278;37895;-74
2023/03/07 10:31:59;;;;;;;38.30;25.40;;;;;;;7.89;49.43;98923.60;108417;1279;37115;-73
2023/03/07 10:34:34;;;;;;;35.60;25.30;;;;;;;7.50;50.56;98922.39;108362;1262;36998;-74
2023/03/07 10:37:16;;;;;;;35.70;24.40;;;;;;;7.18;51.59;98917.48;108186;1271;36970;-73
2023/03/07 10:39:52;;;;;;;39.20;25.90;;;;;;;6.84;52.37;98914.20;108387;1279;37160;-74
2023/03/07 10:42:28;;;;;;;37.40;25.20;;;;;;;6.54;53.51;98908.64;108197;1275;37037;-74
2023/03/07 10:45:03;;;;;;;37.60;25.60;;;;;;;6.30;54.34;98899.35;108385;1279;37111;-73
2023/03/07 10:47:37;;;;;;;36.00;25.30;;;;;;;6.17;55.02;98891.23;108341;1269;36280;-73
2023/03/07 10:50:31;;;;;;;39.10;25.90;;;;;;;6.06;55.79;98880.66;108352;1272;36232;-74
2023/03/07 10:53:08;;;;;;;37.70;25.00;;;;;;;5.94;56.33;98878.19;108400;1279;38261;-73
2023/03/07 10:55:46;;;;;;;39.20;26.10;;;;;;;5.77;56.84;98869.74;108371;1279;37206;-74
2023/03/07 10:58:28;;;;;;;39.50;26.40;;;;;;;5.78;57.47;98866.07;108365;1279;37115;-75
2023/03/07 11:01:11;;;;;;;40.70;26.60;;;;;;;5.82;57.98;98856.40;108421;1279;36991;-74
2023/03/07 11:03:50;;;;;;;41.10;26.50;;;;;;;5.97;58.28;98851.59;108363;1280;38559;-76
2023/03/07 11:06:39;;;;;;;38.70;26.70;;;;;;;6.09;58.38;98848.66;108376;1280;37584;-75
2023/03/07 11:09:28;;;;;;;40.50;27.40;;;;;;;6.07;58.28;98844.27;108274;1280;172783;-74
2023/03/07 11:12:13;;;;;;;40.60;26.30;;;;;;;6.11;58.72;98843.02;108409;1280;38780;-73
2023/03/07 11:14:52;;;;;;;40.90;26.50;;;;;;;6.19;59.10;98834.52;108393;1262;38360;-73
2023/03/07 11:17:27;;;;;;;39.00;26.30;;;;;;;6.28;59.12;98833.10;108355;1277;36641;-75
2023/03/07 11:20:01;;;;;;;44.20;27.90;;;;;;;6.33;58.84;98816.59;108182;1280;38046;-75
2023/03/07 11:22:36;;;;;;;43.00;27.90;;;;;;;6.32;58.99;98815.27;108120;1280;36322;-74
2023/03/07 11:25:19;;;;;;;38.70;26.10;;;;;;;6.29;58.89;98808.63;108326;1270;38579;-74
2023/03/07 11:27:58;;;;;;;41.10;27.80;;;;;;;6.19;58.59;98804.58;108400;1263;37249;-73
2023/03/07 11:30:36;;;;;;;43.80;27.70;;;;;;;6.05;59.14;98797.06;108405;1280;37019;-74
2023/03/07 11:33:16;;;;;;;42.90;27.80;;;;;;;5.99;59.64;98795.27;108363;1280;37124;-72
2023/03/07 11:36:00;;;;;;;41.90;28.20;;;;;;;5.83;59.58;98793.52;108352;1280;37642;-73
2023/03/07 11:38:46;;;;;;;42.10;27.60;;;;;;;5.71;60.10;98796.99;108399;1263;36334;-74
2023/03/07 11:41:23;;;;;;;44.30;28.30;;;;;;;5.71;60.62;98788.84;108148;1280;38391;-74
2023/03/07 11:44:15;;;;;;;46.40;29.70;;;;;;;5.66;60.89;98788.39;108362;1262;37000;-74
2023/03/07 11:47:11;;;;;;;43.10;28.50;;;;;;;5.67;61.52;98781.41;108099;1257;174980;-74
2023/03/07 11:49:57;;;;;;;46.00;29.00;;;;;;;5.69;61.53;98767.84;108371;1273;39045;-74
2023/03/07 11:52:45;;;;;;;47.30;28.60;;;;;;;5.72;61.67;98768.74;108357;1280;37119;-73
2023/03/07 11:55:28;;;;;;;44.40;27.90;;;;;;;5.73;61.85;98752.29;108386;1280;36734;-73
2023/03/07 11:58:17;;;;;;;42.20;28.50;;;;;;;5.79;62.08;98745.92;108361;1280;37220;-74